sensor_id;sensor_type;location;lat;lon;timestamp;pressure;altitude;pressure_sealevel;temperature;humidity
72975;BME280;61166;54.228;37.632;2023-05-24T00:00:11;99187.44;;;14.57;nan
72975;BME280;61166;54.228;37.632;2023-05-24T00:02:39;99192.28;;;14.60;nan
72975;BME280;61166;54.228;37.632;2023-05-24T00:05:09;99183.53;;;14.60;nan
72975;BME280;61166;54.228;37.632;2023-05-24T00:07:36;99183.28;;;14.61;nan
72975;BME280;61166;54.228;37.632;2023-05-24T00:10:04;99180.97;;;14.65;nan
72975;BME280;61166;54.228;37.632;2023-05-24T00:12:32;99179.59;;;14.62;nan
72975;BME280;61166;54.228;37.632;2023-05-24T00:14:58;99178.25;;;14.60;nan
72975;BME280;61166;54.228;37.632;2023-05-24T00:17:25;99180.06;;;14.59;nan
72975;BME280;61166;54.228;37.632;2023-05-24T00:19:52;99174.31;;;14.62;nan
72975;BME280;61166;54.228;37.632;2023-05-24T00:22:18;99175.59;;;14.60;nan
72975;BME280;61166;54.228;37.632;2023-05-24T00:24:46;99172.22;;;14.64;nan
72975;BME280;61166;54.228;37.632;2023-05-24T00:27:13;99166.94;;;14.64;nan
72975;BME280;61166;54.228;37.632;2023-05-24T00:29:40;99165.09;;;14.65;nan
72975;BME280;61166;54.228;37.632;2023-05-24T00:32:07;99167.31;;;14.56;nan
72975;BME280;61166;54.228;37.632;2023-05-24T00:34:33;99162.72;;;14.51;nan
72975;BME280;61166;54.228;37.632;2023-05-24T00:37:00;99157.69;;;14.50;nan
72975;BME280;61166;54.228;37.632;2023-05-24T00:39:26;99159.53;;;14.49;nan
72975;BME280;61166;54.228;37.632;2023-05-24T00:41:53;99162.16;;;14.49;nan
72975;BME280;61166;54.228;37.632;2023-05-24T00:44:19;99162.88;;;14.45;nan
72975;BME280;61166;54.228;37.632;2023-05-24T00:46:46;99160.59;;;14.37;nan
72975;BME280;61166;54.228;37.632;2023-05-24T00:49:13;99164.19;;;14.31;nan
72975;BME280;61166;54.228;37.632;2023-05-24T00:51:40;99161.59;;;14.19;nan
72975;BME280;61166;54.228;37.632;2023-05-24T00:54:06;99160.91;;;14.12;nan
72975;BME280;61166;54.228;37.632;2023-05-24T00:56:33;99168.88;;;14.00;nan
72975;BME280;61166;54.228;37.632;2023-05-24T00:59:00;99162.44;;;13.96;nan
72975;BME280;61166;54.228;37.632;2023-05-24T01:01:27;99172.03;;;13.85;nan
72975;BME280;61166;54.228;37.632;2023-05-24T01:03:54;99161.34;;;13.80;nan
72975;BME280;61166;54.228;37.632;2023-05-24T01:06:20;99167.09;;;13.77;nan
72975;BME280;61166;54.228;37.632;2023-05-24T01:08:57;99161.94;;;13.71;nan
72975;BME280;61166;54.228;37.632;2023-05-24T01:22:16;99166.53;;;13.64;nan
72975;BME280;61166;54.228;37.632;2023-05-24T01:25:06;99160.22;;;13.65;nan
72975;BME280;61166;54.228;37.632;2023-05-24T01:27:37;99159.75;;;13.68;nan
72975;BME280;61166;54.228;37.632;2023-05-24T01:30:05;99159.06;;;13.72;nan
72975;BME280;61166;54.228;37.632;2023-05-24T01:32:32;99164.34;;;13.72;nan
72975;BME280;61166;54.228;37.632;2023-05-24T01:34:58;99158.72;;;13.69;nan
72975;BME280;61166;54.228;37.632;2023-05-24T01:37:25;99159.19;;;13.66;nan
72975;BME280;61166;54.228;37.632;2023-05-24T01:39:52;99163.44;;;13.67;nan
72975;BME280;61166;54.228;37.632;2023-05-24T01:42:27;99164.81;;;13.69;nan
72975;BME280;61166;54.228;37.632;2023-05-24T01:50:32;99158.81;;;13.74;nan
72975;BME280;61166;54.228;37.632;2023-05-24T01:53:05;99151.81;;;13.68;nan
72975;BME280;61166;54.228;37.632;2023-05-24T01:55:34;99166.66;;;13.69;nan
72975;BME280;61166;54.228;37.632;2023-05-24T01:58:04;99156.66;;;13.71;nan
72975;BME280;61166;54.228;37.632;2023-05-24T02:00:32;99157.22;;;13.73;nan
72975;BME280;61166;54.228;37.632;2023-05-24T02:03:00;99154.69;;;13.78;nan
72975;BME280;61166;54.228;37.632;2023-05-24T02:05:27;99149.97;;;13.80;nan
72975;BME280;61166;54.228;37.632;2023-05-24T02:07:54;99147.56;;;13.78;nan
72975;BME280;61166;54.228;37.632;2023-05-24T02:10:20;99145.97;;;13.77;nan
72975;BME280;61166;54.228;37.632;2023-05-24T02:12:47;99148.59;;;13.77;nan
72975;BME280;61166;54.228;37.632;2023-05-24T02:15:14;99142.84;;;13.80;nan
72975;BME280;61166;54.228;37.632;2023-05-24T02:17:41;99141.00;;;13.81;nan
72975;BME280;61166;54.228;37.632;2023-05-24T02:20:08;99138.59;;;13.79;nan
72975;BME280;61166;54.228;37.632;2023-05-24T02:22:35;99143.88;;;13.79;nan
72975;BME280;61166;54.228;37.632;2023-05-24T02:25:01;99143.75;;;13.86;nan
72975;BME280;61166;54.228;37.632;2023-05-24T02:27:28;99139.69;;;13.95;nan
72975;BME280;61166;54.228;37.632;2023-05-24T02:29:55;99135.53;;;13.99;nan
72975;BME280;61166;54.228;37.632;2023-05-24T02:32:21;99145.66;;;14.02;nan
72975;BME280;61166;54.228;37.632;2023-05-24T02:34:48;99138.75;;;14.01;nan
72975;BME280;61166;54.228;37.632;2023-05-24T02:37:14;99140.13;;;14.04;nan
72975;BME280;61166;54.228;37.632;2023-05-24T02:39:41;99140.94;;;14.04;nan
72975;BME280;61166;54.228;37.632;2023-05-24T02:42:08;99138.84;;;14.06;nan
72975;BME280;61166;54.228;37.632;2023-05-24T02:44:34;99142.31;;;14.07;nan
72975;BME280;61166;54.228;37.632;2023-05-24T02:47:01;99138.63;;;14.08;nan
72975;BME280;61166;54.228;37.632;2023-05-24T02:49:27;99143.78;;;14.14;nan
72975;BME280;61166;54.228;37.632;2023-05-24T02:54:20;99145.00;;;14.24;nan
72975;BME280;61166;54.228;37.632;2023-05-24T02:56:47;99153.38;;;14.32;nan
72975;BME280;61166;54.228;37.632;2023-05-24T02:59:13;99145.78;;;14.36;nan
72975;BME280;61166;54.228;37.632;2023-05-24T03:01:40;99149.13;;;14.43;nan
72975;BME280;61166;54.228;37.632;2023-05-24T03:04:07;99142.84;;;14.49;nan
72975;BME280;61166;54.228;37.632;2023-05-24T03:06:33;99151.91;;;14.53;nan
72975;BME280;61166;54.228;37.632;2023-05-24T03:09:00;99149.03;;;14.54;nan
72975;BME280;61166;54.228;37.632;2023-05-24T03:11:26;99149.34;;;14.58;nan
72975;BME280;61166;54.228;37.632;2023-05-24T03:13:53;99149.00;;;14.83;nan
72975;BME280;61166;54.228;37.632;2023-05-24T03:16:20;99149.06;;;15.05;nan
72975;BME280;61166;54.228;37.632;2023-05-24T03:18:46;99140.97;;;15.28;nan
72975;BME280;61166;54.228;37.632;2023-05-24T03:21:13;99139.16;;;15.50;nan
72975;BME280;61166;54.228;37.632;2023-05-24T03:23:40;99137.97;;;15.58;nan
72975;BME280;61166;54.228;37.632;2023-05-24T03:26:06;99139.94;;;15.68;nan
72975;BME280;61166;54.228;37.632;2023-05-24T03:28:33;99139.09;;;15.84;nan
72975;BME280;61166;54.228;37.632;2023-05-24T03:31:00;99136.13;;;16.02;nan
72975;BME280;61166;54.228;37.632;2023-05-24T03:33:26;99139.00;;;16.23;nan
72975;BME280;61166;54.228;37.632;2023-05-24T03:35:53;99134.34;;;16.35;nan
72975;BME280;61166;54.228;37.632;2023-05-24T03:38:19;99138.84;;;16.34;nan
72975;BME280;61166;54.228;37.632;2023-05-24T03:40:46;99148.47;;;16.40;nan
72975;BME280;61166;54.228;37.632;2023-05-24T03:43:13;99143.56;;;16.54;nan
72975;BME280;61166;54.228;37.632;2023-05-24T03:45:39;99149.31;;;16.68;nan
72975;BME280;61166;54.228;37.632;2023-05-24T03:48:06;99149.13;;;16.79;nan
72975;BME280;61166;54.228;37.632;2023-05-24T03:50:33;99146.34;;;16.96;nan
72975;BME280;61166;54.228;37.632;2023-05-24T03:52:59;99152.03;;;17.10;nan
72975;BME280;61166;54.228;37.632;2023-05-24T03:55:26;99150.78;;;17.17;nan
72975;BME280;61166;54.228;37.632;2023-05-24T03:57:53;99151.66;;;17.28;nan
72975;BME280;61166;54.228;37.632;2023-05-24T04:00:19;99146.19;;;17.50;nan
72975;BME280;61166;54.228;37.632;2023-05-24T04:02:46;99155.56;;;17.63;nan
72975;BME280;61166;54.228;37.632;2023-05-24T04:05:13;99153.25;;;17.71;nan
72975;BME280;61166;54.228;37.632;2023-05-24T04:07:40;99148.75;;;17.77;nan
72975;BME280;61166;54.228;37.632;2023-05-24T04:10:07;99158.63;;;17.81;nan
72975;BME280;61166;54.228;37.632;2023-05-24T04:12:34;99161.00;;;17.78;nan
72975;BME280;61166;54.228;37.632;2023-05-24T04:15:01;99157.81;;;17.76;nan
72975;BME280;61166;54.228;37.632;2023-05-24T04:17:28;99163.09;;;17.71;nan
72975;BME280;61166;54.228;37.632;2023-05-24T04:19:55;99164.66;;;17.67;nan
72975;BME280;61166;54.228;37.632;2023-05-24T04:22:22;99153.00;;;17.73;nan
72975;BME280;61166;54.228;37.632;2023-05-24T04:24:51;99156.25;;;17.85;nan
72975;BME280;61166;54.228;37.632;2023-05-24T04:27:18;99153.06;;;17.93;nan
72975;BME280;61166;54.228;37.632;2023-05-24T04:29:44;99155.25;;;18.01;nan
72975;BME280;61166;54.228;37.632;2023-05-24T04:32:11;99161.63;;;18.05;nan
72975;BME280;61166;54.228;37.632;2023-05-24T04:34:37;99166.16;;;18.05;nan
72975;BME280;61166;54.228;37.632;2023-05-24T04:37:04;99166.41;;;18.03;nan
72975;BME280;61166;54.228;37.632;2023-05-24T04:39:30;99164.81;;;18.02;nan
72975;BME280;61166;54.228;37.632;2023-05-24T04:41:57;99170.13;;;18.02;nan
72975;BME280;61166;54.228;37.632;2023-05-24T04:44:23;99172.78;;;17.97;nan
72975;BME280;61166;54.228;37.632;2023-05-24T04:46:50;99170.91;;;17.98;nan
72975;BME280;61166;54.228;37.632;2023-05-24T04:49:17;99168.03;;;18.04;nan
72975;BME280;61166;54.228;37.632;2023-05-24T04:51:44;99173.66;;;18.18;nan
72975;BME280;61166;54.228;37.632;2023-05-24T04:54:11;99173.22;;;18.41;nan
72975;BME280;61166;54.228;37.632;2023-05-24T04:56:37;99174.81;;;18.58;nan
72975;BME280;61166;54.228;37.632;2023-05-24T04:59:05;99163.72;;;18.81;nan
72975;BME280;61166;54.228;37.632;2023-05-24T05:01:31;99168.53;;;18.99;nan
72975;BME280;61166;54.228;37.632;2023-05-24T05:03:59;99166.09;;;19.13;nan
72975;BME280;61166;54.228;37.632;2023-05-24T05:06:26;99173.03;;;19.29;nan
72975;BME280;61166;54.228;37.632;2023-05-24T05:08:52;99165.28;;;19.48;nan
72975;BME280;61166;54.228;37.632;2023-05-24T05:11:19;99162.88;;;19.46;nan
72975;BME280;61166;54.228;37.632;2023-05-24T05:13:45;99178.84;;;19.67;nan
72975;BME280;61166;54.228;37.632;2023-05-24T05:16:14;99174.25;;;19.88;nan
72975;BME280;61166;54.228;37.632;2023-05-24T05:18:40;99158.91;;;20.19;nan
72975;BME280;61166;54.228;37.632;2023-05-24T05:21:07;99168.34;;;20.55;nan
72975;BME280;61166;54.228;37.632;2023-05-24T05:23:33;99167.00;;;21.31;nan
72975;BME280;61166;54.228;37.632;2023-05-24T05:26:00;99163.47;;;22.50;nan
72975;BME280;61166;54.228;37.632;2023-05-24T05:28:26;99170.44;;;23.34;nan
72975;BME280;61166;54.228;37.632;2023-05-24T05:30:53;99167.00;;;23.89;nan
72975;BME280;61166;54.228;37.632;2023-05-24T05:33:19;99162.19;;;24.99;nan
72975;BME280;61166;54.228;37.632;2023-05-24T05:35:46;99156.66;;;25.97;nan
72975;BME280;61166;54.228;37.632;2023-05-24T05:38:13;99158.13;;;27.15;nan
72975;BME280;61166;54.228;37.632;2023-05-24T05:40:39;99164.03;;;27.93;nan
72975;BME280;61166;54.228;37.632;2023-05-24T05:43:06;99169.06;;;28.04;nan
72975;BME280;61166;54.228;37.632;2023-05-24T05:45:33;99161.28;;;29.51;nan
72975;BME280;61166;54.228;37.632;2023-05-24T05:47:59;99166.56;;;31.13;nan
72975;BME280;61166;54.228;37.632;2023-05-24T05:50:26;99156.44;;;33.70;nan
72975;BME280;61166;54.228;37.632;2023-05-24T05:52:53;99155.91;;;34.73;nan
72975;BME280;61166;54.228;37.632;2023-05-24T05:55:19;99153.34;;;33.71;nan
72975;BME280;61166;54.228;37.632;2023-05-24T05:57:46;99161.75;;;33.36;nan
72975;BME280;61166;54.228;37.632;2023-05-24T06:00:13;99158.81;;;33.26;nan
72975;BME280;61166;54.228;37.632;2023-05-24T06:02:39;99156.44;;;32.24;nan
72975;BME280;61166;54.228;37.632;2023-05-24T06:05:06;99165.88;;;31.04;nan
72975;BME280;61166;54.228;37.632;2023-05-24T06:07:33;99151.47;;;31.79;nan
72975;BME280;61166;54.228;37.632;2023-05-24T06:10:00;99151.72;;;32.60;nan
72975;BME280;61166;54.228;37.632;2023-05-24T06:12:26;99157.44;;;32.74;nan
72975;BME280;61166;54.228;37.632;2023-05-24T06:14:53;99154.31;;;32.91;nan
72975;BME280;61166;54.228;37.632;2023-05-24T06:17:19;99148.59;;;31.56;nan
72975;BME280;61166;54.228;37.632;2023-05-24T06:19:46;99145.25;;;31.47;nan
72975;BME280;61166;54.228;37.632;2023-05-24T06:22:12;99147.53;;;31.13;nan
72975;BME280;61166;54.228;37.632;2023-05-24T06:24:39;99147.88;;;30.56;nan
72975;BME280;61166;54.228;37.632;2023-05-24T06:27:05;99155.56;;;30.02;nan
72975;BME280;61166;54.228;37.632;2023-05-24T06:29:32;99154.78;;;30.01;nan
72975;BME280;61166;54.228;37.632;2023-05-24T06:31:59;99149.91;;;29.95;nan
72975;BME280;61166;54.228;37.632;2023-05-24T06:34:25;99149.28;;;29.28;nan
72975;BME280;61166;54.228;37.632;2023-05-24T06:36:52;99153.28;;;28.56;nan
72975;BME280;61166;54.228;37.632;2023-05-24T06:39:18;99156.47;;;28.37;nan
72975;BME280;61166;54.228;37.632;2023-05-24T06:41:45;99151.94;;;28.29;nan
72975;BME280;61166;54.228;37.632;2023-05-24T06:44:12;99155.75;;;28.28;nan
72975;BME280;61166;54.228;37.632;2023-05-24T06:46:38;99151.50;;;28.18;nan
72975;BME280;61166;54.228;37.632;2023-05-24T06:49:05;99150.38;;;28.40;nan
72975;BME280;61166;54.228;37.632;2023-05-24T06:51:32;99153.34;;;28.89;nan
72975;BME280;61166;54.228;37.632;2023-05-24T06:53:58;99151.81;;;29.45;nan
72975;BME280;61166;54.228;37.632;2023-05-24T06:56:25;99151.47;;;29.71;nan
72975;BME280;61166;54.228;37.632;2023-05-24T06:58:51;99151.81;;;29.45;nan
72975;BME280;61166;54.228;37.632;2023-05-24T07:01:18;99146.00;;;30.32;nan
72975;BME280;61166;54.228;37.632;2023-05-24T07:03:44;99139.81;;;32.48;nan
72975;BME280;61166;54.228;37.632;2023-05-24T07:06:11;99141.41;;;32.30;nan
72975;BME280;61166;54.228;37.632;2023-05-24T07:08:39;99143.53;;;32.40;nan
72975;BME280;61166;54.228;37.632;2023-05-24T07:11:06;99146.56;;;31.53;nan
72975;BME280;61166;54.228;37.632;2023-05-24T07:13:33;99142.88;;;30.06;nan
72975;BME280;61166;54.228;37.632;2023-05-24T07:16:00;99142.38;;;29.18;nan
72975;BME280;61166;54.228;37.632;2023-05-24T07:18:26;99156.91;;;27.51;nan
72975;BME280;61166;54.228;37.632;2023-05-24T07:20:53;99144.66;;;26.63;nan
72975;BME280;61166;54.228;37.632;2023-05-24T07:23:19;99153.78;;;25.93;nan
72975;BME280;61166;54.228;37.632;2023-05-24T07:25:46;99163.97;;;25.04;nan
72975;BME280;61166;54.228;37.632;2023-05-24T07:28:13;99154.91;;;24.77;nan
72975;BME280;61166;54.228;37.632;2023-05-24T07:30:40;99149.88;;;25.29;nan
72975;BME280;61166;54.228;37.632;2023-05-24T07:33:07;99150.97;;;26.16;nan
72975;BME280;61166;54.228;37.632;2023-05-24T07:35:33;99155.00;;;27.51;nan
72975;BME280;61166;54.228;37.632;2023-05-24T07:38:00;99152.34;;;28.93;nan
72975;BME280;61166;54.228;37.632;2023-05-24T07:40:26;99144.84;;;30.45;nan
72975;BME280;61166;54.228;37.632;2023-05-24T07:42:53;99142.81;;;31.73;nan
72975;BME280;61166;54.228;37.632;2023-05-24T07:45:19;99147.31;;;32.01;nan
72975;BME280;61166;54.228;37.632;2023-05-24T07:47:46;99142.47;;;32.64;nan
72975;BME280;61166;54.228;37.632;2023-05-24T07:50:13;99144.91;;;32.69;nan
72975;BME280;61166;54.228;37.632;2023-05-24T07:52:39;99139.88;;;32.52;nan
72975;BME280;61166;54.228;37.632;2023-05-24T07:55:06;99148.97;;;31.70;nan
72975;BME280;61166;54.228;37.632;2023-05-24T07:57:33;99140.25;;;31.49;nan
72975;BME280;61166;54.228;37.632;2023-05-24T07:59:59;99147.69;;;31.20;nan
72975;BME280;61166;54.228;37.632;2023-05-24T08:02:26;99152.28;;;30.88;nan
72975;BME280;61166;54.228;37.632;2023-05-24T08:04:52;99144.47;;;30.87;nan
72975;BME280;61166;54.228;37.632;2023-05-24T08:07:19;99138.88;;;30.96;nan
72975;BME280;61166;54.228;37.632;2023-05-24T08:09:46;99146.53;;;30.50;nan
72975;BME280;61166;54.228;37.632;2023-05-24T08:12:12;99158.03;;;28.80;nan
72975;BME280;61166;54.228;37.632;2023-05-24T08:14:42;99162.94;;;28.24;nan
72975;BME280;61166;54.228;37.632;2023-05-24T08:17:08;99158.69;;;27.85;nan
72975;BME280;61166;54.228;37.632;2023-05-24T08:19:35;99155.16;;;26.74;nan
72975;BME280;61166;54.228;37.632;2023-05-24T08:22:02;99162.06;;;25.97;nan
72975;BME280;61166;54.228;37.632;2023-05-24T08:24:29;99161.97;;;25.40;nan
72975;BME280;61166;54.228;37.632;2023-05-24T08:26:56;99166.38;;;24.91;nan
72975;BME280;61166;54.228;37.632;2023-05-24T08:29:22;99171.84;;;24.42;nan
72975;BME280;61166;54.228;37.632;2023-05-24T08:31:49;99171.53;;;24.43;nan
72975;BME280;61166;54.228;37.632;2023-05-24T08:34:16;99171.78;;;24.06;nan
72975;BME280;61166;54.228;37.632;2023-05-24T08:36:42;99179.16;;;23.73;nan
72975;BME280;61166;54.228;37.632;2023-05-24T08:39:09;99180.63;;;23.19;nan
72975;BME280;61166;54.228;37.632;2023-05-24T08:41:35;99175.06;;;22.83;nan
72975;BME280;61166;54.228;37.632;2023-05-24T08:44:04;99175.59;;;22.61;nan
72975;BME280;61166;54.228;37.632;2023-05-24T08:46:35;99182.44;;;22.34;nan
72975;BME280;61166;54.228;37.632;2023-05-24T08:49:03;99185.53;;;22.23;nan
72975;BME280;61166;54.228;37.632;2023-05-24T08:51:30;99181.09;;;22.13;nan
72975;BME280;61166;54.228;37.632;2023-05-24T08:54:00;99187.03;;;22.10;nan
72975;BME280;61166;54.228;37.632;2023-05-24T08:56:28;99181.44;;;22.06;nan
72975;BME280;61166;54.228;37.632;2023-05-24T08:58:55;99187.81;;;22.11;nan
72975;BME280;61166;54.228;37.632;2023-05-24T09:01:23;99188.72;;;22.25;nan
72975;BME280;61166;54.228;37.632;2023-05-24T09:03:54;99194.38;;;22.42;nan
72975;BME280;61166;54.228;37.632;2023-05-24T09:06:21;99188.16;;;22.65;nan
72975;BME280;61166;54.228;37.632;2023-05-24T09:08:49;99195.25;;;22.94;nan
72975;BME280;61166;54.228;37.632;2023-05-24T09:11:16;99193.84;;;23.15;nan
72975;BME280;61166;54.228;37.632;2023-05-24T09:13:44;99193.59;;;23.30;nan
72975;BME280;61166;54.228;37.632;2023-05-24T09:16:11;99196.84;;;23.60;nan
72975;BME280;61166;54.228;37.632;2023-05-24T09:18:39;99204.03;;;23.92;nan
72975;BME280;61166;54.228;37.632;2023-05-24T09:21:06;99198.31;;;24.48;nan
72975;BME280;61166;54.228;37.632;2023-05-24T09:23:33;99194.66;;;24.80;nan
72975;BME280;61166;54.228;37.632;2023-05-24T09:26:06;99196.47;;;24.93;nan
72975;BME280;61166;54.228;37.632;2023-05-24T09:28:32;99205.38;;;24.44;nan
72975;BME280;61166;54.228;37.632;2023-05-24T09:31:00;99201.97;;;24.88;nan
72975;BME280;61166;54.228;37.632;2023-05-24T09:33:32;99198.75;;;25.22;nan
72975;BME280;61166;54.228;37.632;2023-05-24T09:36:02;99198.75;;;25.22;nan
72975;BME280;61166;54.228;37.632;2023-05-24T09:38:28;99199.75;;;25.26;nan
72975;BME280;61166;54.228;37.632;2023-05-24T09:41:02;99200.09;;;25.11;nan
72975;BME280;61166;54.228;37.632;2023-05-24T09:43:30;99196.66;;;25.42;nan
72975;BME280;61166;54.228;37.632;2023-05-24T09:45:57;99199.56;;;25.23;nan
72975;BME280;61166;54.228;37.632;2023-05-24T09:48:24;99200.16;;;25.51;nan
72975;BME280;61166;54.228;37.632;2023-05-24T09:51:07;99197.69;;;25.63;nan
72975;BME280;61166;54.228;37.632;2023-05-24T09:53:34;99209.03;;;25.20;nan
72975;BME280;61166;54.228;37.632;2023-05-24T09:56:06;99211.13;;;24.65;nan
72975;BME280;61166;54.228;37.632;2023-05-24T09:58:32;99217.19;;;24.71;nan
72975;BME280;61166;54.228;37.632;2023-05-24T10:01:06;99208.31;;;25.06;nan
72975;BME280;61166;54.228;37.632;2023-05-24T10:03:34;99213.94;;;25.49;nan
72975;BME280;61166;54.228;37.632;2023-05-24T10:06:02;99217.72;;;25.17;nan
72975;BME280;61166;54.228;37.632;2023-05-24T10:08:28;99216.63;;;24.96;nan
72975;BME280;61166;54.228;37.632;2023-05-24T10:10:56;99222.06;;;24.68;nan
72975;BME280;61166;54.228;37.632;2023-05-24T10:13:23;99221.97;;;24.74;nan
72975;BME280;61166;54.228;37.632;2023-05-24T10:15:50;99234.97;;;24.44;nan
72975;BME280;61166;54.228;37.632;2023-05-24T10:18:17;99234.69;;;24.04;nan
72975;BME280;61166;54.228;37.632;2023-05-24T10:20:43;99242.44;;;24.06;nan
72975;BME280;61166;54.228;37.632;2023-05-24T10:23:14;99237.16;;;24.28;nan
72975;BME280;61166;54.228;37.632;2023-05-24T10:25:49;99241.41;;;24.57;nan
72975;BME280;61166;54.228;37.632;2023-05-24T10:28:17;99240.88;;;24.82;nan
72975;BME280;61166;54.228;37.632;2023-05-24T10:31:29;99239.72;;;24.97;nan
72975;BME280;61166;54.228;37.632;2023-05-24T10:33:48;99236.41;;;25.45;nan
72975;BME280;61166;54.228;37.632;2023-05-24T10:36:15;99237.69;;;25.47;nan
72975;BME280;61166;54.228;37.632;2023-05-24T10:38:42;99253.16;;;25.33;nan
72975;BME280;61166;54.228;37.632;2023-05-24T10:41:10;99246.28;;;25.27;nan
72975;BME280;61166;54.228;37.632;2023-05-24T10:43:37;99243.31;;;24.92;nan
72975;BME280;61166;54.228;37.632;2023-05-24T10:46:06;99235.53;;;25.05;nan
72975;BME280;61166;54.228;37.632;2023-05-24T10:48:34;99241.94;;;25.17;nan
72975;BME280;61166;54.228;37.632;2023-05-24T10:51:36;99244.19;;;25.46;nan
72975;BME280;61166;54.228;37.632;2023-05-24T10:54:14;99239.41;;;25.96;nan
72975;BME280;61166;54.228;37.632;2023-05-24T10:56:47;99241.94;;;26.50;nan
72975;BME280;61166;54.228;37.632;2023-05-24T10:59:22;99242.44;;;26.95;nan
72975;BME280;61166;54.228;37.632;2023-05-24T11:01:56;99242.13;;;27.22;nan
72975;BME280;61166;54.228;37.632;2023-05-24T11:04:23;99244.34;;;27.20;nan
72975;BME280;61166;54.228;37.632;2023-05-24T11:07:00;99240.41;;;27.09;nan
72975;BME280;61166;54.228;37.632;2023-05-24T11:09:27;99241.19;;;27.18;nan
72975;BME280;61166;54.228;37.632;2023-05-24T11:12:02;99238.78;;;27.25;nan
72975;BME280;61166;54.228;37.632;2023-05-24T11:14:30;99231.78;;;27.33;nan
72975;BME280;61166;54.228;37.632;2023-05-24T11:16:57;99234.13;;;27.69;nan
72975;BME280;61166;54.228;37.632;2023-05-24T11:22:06;99226.34;;;27.50;nan
72975;BME280;61166;54.228;37.632;2023-05-24T11:24:34;99234.84;;;27.06;nan
72975;BME280;61166;54.228;37.632;2023-05-24T11:27:00;99227.03;;;26.61;nan
72975;BME280;61166;54.228;37.632;2023-05-24T11:29:28;99229.31;;;25.49;nan
72975;BME280;61166;54.228;37.632;2023-05-24T11:31:57;99241.75;;;24.28;nan
72975;BME280;61166;54.228;37.632;2023-05-24T11:34:24;99239.34;;;24.26;nan
72975;BME280;61166;54.228;37.632;2023-05-24T11:36:50;99241.44;;;24.16;nan
72975;BME280;61166;54.228;37.632;2023-05-24T11:39:17;99249.22;;;24.17;nan
72975;BME280;61166;54.228;37.632;2023-05-24T11:41:44;99237.34;;;23.77;nan
72975;BME280;61166;54.228;37.632;2023-05-24T11:44:11;99232.78;;;23.45;nan
72975;BME280;61166;54.228;37.632;2023-05-24T11:46:38;99223.94;;;23.45;nan
72975;BME280;61166;54.228;37.632;2023-05-24T11:49:05;99237.31;;;23.31;nan
72975;BME280;61166;54.228;37.632;2023-05-24T11:51:33;99226.69;;;23.39;nan
72975;BME280;61166;54.228;37.632;2023-05-24T11:54:00;99225.19;;;23.33;nan
72975;BME280;61166;54.228;37.632;2023-05-24T11:56:30;99233.00;;;23.49;nan
72975;BME280;61166;54.228;37.632;2023-05-24T11:59:12;99227.41;;;23.45;nan
72975;BME280;61166;54.228;37.632;2023-05-24T12:01:39;99233.16;;;23.85;nan
72975;BME280;61166;54.228;37.632;2023-05-24T12:04:07;99230.69;;;24.43;nan
72975;BME280;61166;54.228;37.632;2023-05-24T12:06:38;99228.97;;;24.97;nan
72975;BME280;61166;54.228;37.632;2023-05-24T12:09:06;99223.00;;;24.86;nan
72975;BME280;61166;54.228;37.632;2023-05-24T12:11:37;99218.56;;;24.82;nan
72975;BME280;61166;54.228;37.632;2023-05-24T12:14:04;99220.59;;;24.62;nan
72975;BME280;61166;54.228;37.632;2023-05-24T12:16:30;99217.34;;;24.24;nan
72975;BME280;61166;54.228;37.632;2023-05-24T12:18:58;99216.47;;;23.42;nan
72975;BME280;61166;54.228;37.632;2023-05-24T12:21:40;99215.97;;;23.07;nan
72975;BME280;61166;54.228;37.632;2023-05-24T12:24:11;99213.03;;;22.90;nan
72975;BME280;61166;54.228;37.632;2023-05-24T12:26:46;99213.78;;;22.71;nan
72975;BME280;61166;54.228;37.632;2023-05-24T12:29:14;99221.47;;;22.59;nan
72975;BME280;61166;54.228;37.632;2023-05-24T12:31:44;99217.56;;;22.70;nan
72975;BME280;61166;54.228;37.632;2023-05-24T12:34:14;99219.38;;;22.75;nan
72975;BME280;61166;54.228;37.632;2023-05-24T12:36:42;99222.09;;;22.94;nan
72975;BME280;61166;54.228;37.632;2023-05-24T12:39:23;99220.91;;;23.00;nan
72975;BME280;61166;54.228;37.632;2023-05-24T12:41:53;99223.59;;;23.32;nan
72975;BME280;61166;54.228;37.632;2023-05-24T12:44:32;99220.53;;;23.58;nan
72975;BME280;61166;54.228;37.632;2023-05-24T12:47:00;99220.72;;;23.75;nan
72975;BME280;61166;54.228;37.632;2023-05-24T12:49:27;99220.53;;;23.85;nan
72975;BME280;61166;54.228;37.632;2023-05-24T12:51:55;99209.47;;;23.73;nan
72975;BME280;61166;54.228;37.632;2023-05-24T12:54:23;99213.50;;;23.43;nan
72975;BME280;61166;54.228;37.632;2023-05-24T12:56:51;99216.69;;;23.45;nan
72975;BME280;61166;54.228;37.632;2023-05-24T12:59:21;99215.06;;;23.63;nan
72975;BME280;61166;54.228;37.632;2023-05-24T13:01:48;99215.28;;;23.48;nan
72975;BME280;61166;54.228;37.632;2023-05-24T13:04:16;99207.75;;;23.17;nan
72975;BME280;61166;54.228;37.632;2023-05-24T13:06:43;99205.50;;;23.24;nan
72975;BME280;61166;54.228;37.632;2023-05-24T13:09:09;99222.16;;;22.89;nan
72975;BME280;61166;54.228;37.632;2023-05-24T13:11:36;99224.41;;;22.82;nan
72975;BME280;61166;54.228;37.632;2023-05-24T13:14:03;99222.16;;;23.08;nan
72975;BME280;61166;54.228;37.632;2023-05-24T13:16:29;99218.56;;;23.12;nan
72975;BME280;61166;54.228;37.632;2023-05-24T13:18:56;99224.63;;;22.85;nan
72975;BME280;61166;54.228;37.632;2023-05-24T13:21:22;99221.00;;;22.95;nan
72975;BME280;61166;54.228;37.632;2023-05-24T13:23:49;99223.84;;;23.17;nan
72975;BME280;61166;54.228;37.632;2023-05-24T13:26:16;99230.06;;;23.31;nan
72975;BME280;61166;54.228;37.632;2023-05-24T13:28:43;99223.59;;;23.32;nan
72975;BME280;61166;54.228;37.632;2023-05-24T13:31:30;99227.56;;;23.54;nan
72975;BME280;61166;54.228;37.632;2023-05-24T13:33:57;99232.06;;;23.72;nan